createdAt,value
2016-04-30T00:00:32.397Z,96.45
2016-04-30T00:01:32.353Z,95.89
2016-04-30T00:02:32.340Z,96.17
2016-04-30T00:03:32.310Z,96.45
2016-04-30T00:04:32.299Z,96.26
2016-04-30T00:05:32.254Z,96.36
2016-04-30T00:06:32.241Z,96.93
2016-04-30T00:07:32.197Z,96.84
2016-04-30T00:08:32.184Z,96.55
2016-04-30T00:09:32.156Z,97.17
2016-04-30T00:10:32.127Z,96.69
2016-04-30T00:11:32.114Z,96.79
2016-04-30T00:12:32.085Z,96.6
2016-04-30T00:13:32.042Z,97.55
2016-04-30T00:14:32.029Z,97.92
2016-04-30T00:15:32.000Z,97.83
2016-04-30T00:16:31.815Z,98.59
2016-04-30T00:17:31.958Z,98.31
2016-04-30T00:18:31.914Z,98.69
2016-04-30T00:19:31.886Z,98.4
2016-04-30T00:20:31.873Z,98.21
2016-04-30T00:21:31.844Z,98.02
2016-04-30T00:22:31.816Z,97.83
2016-04-30T00:23:31.787Z,98.59
2016-04-30T00:24:31.602Z,98.88
2016-04-30T00:25:31.731Z,98.79
2016-04-30T00:26:31.702Z,98.79
2016-04-30T00:27:31.673Z,98.59
2016-04-30T00:28:31.644Z,98.79
2016-04-30T00:29:31.616Z,98.92
2016-04-30T00:30:31.602Z,99.07
2016-04-30T00:31:31.575Z,99.21
2016-04-30T00:32:31.530Z,98.92
2016-04-30T00:33:31.517Z,98.64
2016-04-30T00:34:31.488Z,99.02
2016-04-30T00:35:31.460Z,99.4
2016-04-30T00:36:31.275Z,99.97
2016-04-30T00:37:31.403Z,99.87
2016-04-30T00:38:31.374Z,99.68
2016-04-30T00:39:31.189Z,99.68
2016-04-30T00:40:31.332Z,99.77
2016-04-30T00:41:31.288Z,99.77
2016-04-30T00:42:31.276Z,99.77
2016-04-30T00:43:31.248Z,99.87
2016-04-30T00:44:31.218Z,99.99
2016-04-30T00:45:31.190Z,99.99
2016-04-30T00:46:31.162Z,99.99
2016-04-30T00:47:31.133Z,99.99
2016-04-30T00:48:31.104Z,99.99
2016-04-30T00:49:31.092Z,99.99
2016-04-30T00:50:31.047Z,99.99
2016-04-30T00:51:31.034Z,99.99
2016-04-30T00:52:31.006Z,99.99
2016-04-30T00:53:30.978Z,99.99
2016-04-30T00:54:30.948Z,99.99
2016-04-30T00:55:30.920Z,99.99
2016-04-30T00:56:30.891Z,99.99
2016-04-30T00:57:30.863Z,99.99
2016-04-30T00:58:30.834Z,99.99
2016-04-30T00:59:30.806Z,99.99
2016-04-30T01:00:30.793Z,99.99
2016-04-30T01:01:30.749Z,99.99
2016-04-30T01:02:30.735Z,99.99
2016-04-30T01:03:30.833Z,99.99
2016-04-30T01:04:30.679Z,99.99
2016-04-30T01:05:30.665Z,99.99
2016-04-30T01:06:30.638Z,99.99
2016-04-30T01:07:30.593Z,99.99
2016-04-30T01:08:30.580Z,99.99
2016-04-30T01:09:30.535Z,99.99
2016-04-30T01:10:30.366Z,99.99
2016-04-30T01:11:30.479Z,99.99
2016-04-30T01:12:30.466Z,99.99
2016-04-30T01:13:30.437Z,99.99
2016-04-30T01:14:30.409Z,99.99
2016-04-30T01:15:30.380Z,99.99
2016-04-30T01:16:30.351Z,99.99
2016-04-30T01:17:30.323Z,99.99
2016-04-30T01:18:30.310Z,99.99
2016-04-30T01:19:30.109Z,99.99
2016-04-30T01:20:30.237Z,99.99
2016-04-30T01:21:30.068Z,99.99
2016-04-30T01:22:30.195Z,99.99
2016-04-30T01:23:30.167Z,99.99
2016-04-30T01:24:30.139Z,99.99
2016-04-30T01:25:30.110Z,99.99
2016-04-30T01:26:29.925Z,99.99
2016-04-30T01:27:30.053Z,99.99
2016-04-30T01:28:30.024Z,99.99
2016-04-30T01:29:29.996Z,99.99
2016-04-30T01:30:29.966Z,99.99
2016-04-30T01:31:29.954Z,99.99
2016-04-30T01:32:29.926Z,99.99
2016-04-30T01:33:30.007Z,99.99
2016-04-30T01:34:29.869Z,99.99
2016-04-30T01:35:29.840Z,99.99
2016-04-30T01:36:29.811Z,99.99
2016-04-30T01:37:29.783Z,99.99
2016-04-30T01:38:29.770Z,99.99
2016-04-30T01:39:29.726Z,99.99
2016-04-30T01:40:29.557Z,99.99
2016-04-30T01:41:29.684Z,99.99
2016-04-30T01:42:29.656Z,99.99
2016-04-30T01:43:29.627Z,99.99
2016-04-30T01:44:29.599Z,99.99
2016-04-30T01:45:29.571Z,99.99
2016-04-30T01:46:29.542Z,99.99
2016-04-30T01:47:29.512Z,99.99
2016-04-30T01:48:30.625Z,99.99
2016-04-30T01:49:29.471Z,99.99
2016-04-30T01:50:29.427Z,99.99
2016-04-30T01:51:29.415Z,99.99
2016-04-30T01:52:29.401Z,99.99
2016-04-30T01:53:29.357Z,99.99
2016-04-30T01:54:29.328Z,99.99
2016-04-30T01:55:29.300Z,99.99
2016-04-30T01:56:29.287Z,99.99
2016-04-30T01:57:29.258Z,99.99
2016-04-30T01:58:29.230Z,99.99
2016-04-30T01:59:29.045Z,99.99
2016-04-30T02:00:29.017Z,99.99
2016-04-30T02:01:29.144Z,99.99
2016-04-30T02:02:29.116Z,99.59
2016-04-30T02:03:29.103Z,99.3
2016-04-30T02:04:28.903Z,99.3
2016-04-30T02:05:29.046Z,99.99
2016-04-30T02:06:29.017Z,99.88
2016-04-30T02:07:28.988Z,99.99
2016-04-30T02:08:28.976Z,99.5
2016-04-30T02:09:28.932Z,99.5
2016-04-30T02:10:28.918Z,99.97
2016-04-30T02:11:28.874Z,99.78
2016-04-30T02:12:28.862Z,99.4
2016-04-30T02:13:28.833Z,99.3
2016-04-30T02:14:28.804Z,99.97
2016-04-30T02:15:28.775Z,99.97
2016-04-30T02:16:28.762Z,99.5
2016-04-30T02:17:28.719Z,99.4
2016-04-30T02:18:28.924Z,99.4
2016-04-30T02:19:28.662Z,99.88
2016-04-30T02:20:28.492Z,99.99
2016-04-30T02:21:28.620Z,99.99
2016-04-30T02:22:28.592Z,99.99
2016-04-30T02:23:28.563Z,99.99
2016-04-30T02:24:28.534Z,99.99
2016-04-30T02:25:28.522Z,99.99
2016-04-30T02:26:28.492Z,99.99
2016-04-30T02:27:28.464Z,99.99
2016-04-30T02:28:28.420Z,99.99
2016-04-30T02:29:28.407Z,99.99
2016-04-30T02:30:28.379Z,99.99
2016-04-30T02:31:28.194Z,99.99
2016-04-30T02:32:28.322Z,99.99
2016-04-30T02:33:28.308Z,99.99
2016-04-30T02:34:28.452Z,99.97
2016-04-30T02:35:28.251Z,99.99
2016-04-30T02:36:28.238Z,99.99
2016-04-30T02:37:28.194Z,99.4
2016-04-30T02:38:28.166Z,99.88
2016-04-30T02:39:28.137Z,99.4
2016-04-30T02:40:28.108Z,99.78
2016-04-30T02:41:28.080Z,99.5
2016-04-30T02:42:28.051Z,99.5
2016-04-30T02:43:28.023Z,99.88
2016-04-30T02:44:28.010Z,99.88
2016-04-30T02:45:27.826Z,99.5
2016-04-30T02:46:27.953Z,98.74
2016-04-30T02:47:27.924Z,99.11
2016-04-30T02:48:27.895Z,99.11
2016-04-30T02:49:27.899Z,98.36
2016-04-30T02:50:27.839Z,98.36
2016-04-30T02:51:27.826Z,98.17
2016-04-30T02:52:27.781Z,97.88
2016-04-30T02:53:27.768Z,97.12
2016-04-30T02:54:27.739Z,97.12
2016-04-30T02:55:27.711Z,97.03
2016-04-30T02:56:27.684Z,96.55
2016-04-30T02:57:27.498Z,96.65
2016-04-30T02:58:27.626Z,96.65
2016-04-30T02:59:27.597Z,96.74
2016-04-30T03:00:27.568Z,96.55
2016-04-30T03:01:27.539Z,97.12
2016-04-30T03:02:27.371Z,96.88
2016-04-30T03:03:27.499Z,96.55
2016-04-30T03:04:27.627Z,96.79
2016-04-30T03:05:27.441Z,96.74
2016-04-30T03:06:27.413Z,96.22
2016-04-30T03:07:27.228Z,96.65
2016-04-30T03:08:27.356Z,97.03
2016-04-30T03:09:27.327Z,96.74
2016-04-30T03:10:27.299Z,97.22
2016-04-30T03:11:27.285Z,96.93
2016-04-30T03:12:27.257Z,97.22
2016-04-30T03:13:27.229Z,96.88
2016-04-30T03:14:27.199Z,96.88
2016-04-30T03:15:27.172Z,96.69
2016-04-30T03:16:27.143Z,97.07
2016-04-30T03:17:27.115Z,96.98
2016-04-30T03:18:27.085Z,96.79
2016-04-30T03:19:27.057Z,96.98
2016-04-30T03:20:27.044Z,96.79
2016-04-30T03:21:27.015Z,96.79
2016-04-30T03:22:26.987Z,97.07
2016-04-30T03:23:26.959Z,96.88
2016-04-30T03:24:26.930Z,97.17
2016-04-30T03:25:26.918Z,96.88
2016-04-30T03:26:26.889Z,97.07
2016-04-30T03:27:26.844Z,96.98
2016-04-30T03:28:26.831Z,97.17
2016-04-30T03:29:26.787Z,96.88
2016-04-30T03:30:26.790Z,96.69
2016-04-30T03:31:26.745Z,96.69
2016-04-30T03:32:26.782Z,96.5
2016-04-30T03:33:26.790Z,97.27
2016-04-30T03:34:26.816Z,97.55
2016-04-30T03:35:26.839Z,96.79
2016-04-30T03:36:26.864Z,96.88
2016-04-30T03:37:26.857Z,96.88
2016-04-30T03:38:26.690Z,97.07
2016-04-30T03:39:26.837Z,97.45
2016-04-30T03:40:26.843Z,97.64
2016-04-30T03:41:26.834Z,97.83
2016-04-30T03:42:26.828Z,97.55
2016-04-30T03:43:26.791Z,97.64
2016-04-30T03:44:26.784Z,97.27
2016-04-30T03:45:26.763Z,97.27
2016-04-30T03:46:26.742Z,97.27
2016-04-30T03:47:26.700Z,96.98
2016-04-30T03:48:26.689Z,97.45
2016-04-30T03:49:26.977Z,97.36
2016-04-30T03:50:26.638Z,97.07
2016-04-30T03:51:26.613Z,97.27
2016-04-30T03:52:26.617Z,97.92
2016-04-30T03:53:26.401Z,97.74
2016-04-30T03:54:26.530Z,97.92
2016-04-30T03:55:26.502Z,97.45
2016-04-30T03:56:26.473Z,97.45
2016-04-30T03:57:26.461Z,97.92
2016-04-30T03:58:26.434Z,97.64
2016-04-30T03:59:26.404Z,97.74
2016-04-30T04:00:26.377Z,98.21
2016-04-30T04:01:26.349Z,98.02
2016-04-30T04:02:26.164Z,98.02
2016-04-30T04:03:26.292Z,98.02
2016-04-30T04:04:26.122Z,98.12
2016-04-30T04:05:26.078Z,97.92
2016-04-30T04:06:26.221Z,98.02
2016-04-30T04:07:26.176Z,97.83
2016-04-30T04:08:26.149Z,98.12
2016-04-30T04:09:25.980Z,98.21
2016-04-30T04:10:26.123Z,98.31
2016-04-30T04:11:25.923Z,98.4
2016-04-30T04:12:26.050Z,98.02
2016-04-30T04:13:26.021Z,98.31
2016-04-30T04:14:25.837Z,97.83
2016-04-30T04:15:25.824Z,98.02
2016-04-30T04:16:25.951Z,98.02
2016-04-30T04:17:25.923Z,97.92
2016-04-30T04:18:25.894Z,97.92
2016-04-30T04:19:26.116Z,98.12
2016-04-30T04:20:25.837Z,98.02
2016-04-30T04:21:25.809Z,98.02
2016-04-30T04:22:25.778Z,97.83
2016-04-30T04:23:25.764Z,97.92
2016-04-30T04:24:25.580Z,97.92
2016-04-30T04:25:25.707Z,97.92
2016-04-30T04:26:25.678Z,98.12
2016-04-30T04:27:25.494Z,98.12
2016-04-30T04:28:25.622Z,97.55
2016-04-30T04:29:25.594Z,97.64
2016-04-30T04:30:25.564Z,98.12
2016-04-30T04:31:25.536Z,98.02
2016-04-30T04:32:25.507Z,97.45
2016-04-30T04:33:25.479Z,97.27
2016-04-30T04:34:25.465Z,97.55
2016-04-30T04:35:25.282Z,97.92
2016-04-30T04:36:25.409Z,97.83
2016-04-30T04:37:25.380Z,97.92
2016-04-30T04:38:25.368Z,97.92
2016-04-30T04:39:25.323Z,98.21
2016-04-30T04:40:25.295Z,97.27
2016-04-30T04:41:25.282Z,97.97
2016-04-30T04:42:25.237Z,97.31
2016-04-30T04:43:25.240Z,97.31
2016-04-30T04:44:25.196Z,97.5
2016-04-30T04:45:25.167Z,97.64
2016-04-30T04:46:24.982Z,97.83
2016-04-30T04:47:24.954Z,97.6
2016-04-30T04:48:25.082Z,97.22
2016-04-30T04:49:24.912Z,96.93
2016-04-30T04:50:25.040Z,97.12
2016-04-30T04:51:24.995Z,97.12
2016-04-30T04:52:24.983Z,96.74
2016-04-30T04:53:24.954Z,97.27
2016-04-30T04:54:24.926Z,97.22
2016-04-30T04:55:24.897Z,96.93
2016-04-30T04:56:24.869Z,96.5
2016-04-30T04:57:24.840Z,96.74
2016-04-30T04:58:24.827Z,96.45
2016-04-30T04:59:24.799Z,97.12
2016-04-30T05:00:24.770Z,97.03
2016-04-30T05:01:24.742Z,97.31
2016-04-30T05:02:24.713Z,96.84
2016-04-30T05:03:24.700Z,97.69
2016-04-30T05:04:24.687Z,97.03
2016-04-30T05:05:24.627Z,96.93
2016-04-30T05:06:24.443Z,97.41
2016-04-30T05:07:24.586Z,97.41
2016-04-30T05:08:24.401Z,97.31
2016-04-30T05:09:24.373Z,96.93
2016-04-30T05:10:24.500Z,96.93
2016-04-30T05:11:24.471Z,96.55
2016-04-30T05:12:24.443Z,96.65
2016-04-30T05:13:24.415Z,97.12
2016-04-30T05:14:24.401Z,97.31
2016-04-30T05:15:24.373Z,97.03
2016-04-30T05:16:24.345Z,97.03
2016-04-30T05:17:24.315Z,96.93
2016-04-30T05:18:24.287Z,97.22
2016-04-30T05:19:24.118Z,97.22
2016-04-30T05:20:24.231Z,96.93
2016-04-30T05:21:24.201Z,96.93
2016-04-30T05:22:24.189Z,97.22
2016-04-30T05:23:24.003Z,96.93
2016-04-30T05:24:24.116Z,96.55
2016-04-30T05:25:24.103Z,96.93
2016-04-30T05:26:23.919Z,96.93
2016-04-30T05:27:24.046Z,96.93
2016-04-30T05:28:24.017Z,96.93
2016-04-30T05:29:23.989Z,97.12
2016-04-30T05:30:23.960Z,96.93
2016-04-30T05:31:23.947Z,96.84
2016-04-30T05:32:23.919Z,96.84
2016-04-30T05:33:23.890Z,97.31
2016-04-30T05:34:23.877Z,97.22
2016-04-30T05:35:23.693Z,97.31
2016-04-30T05:36:23.804Z,97.03
2016-04-30T05:37:23.620Z,97.03
2016-04-30T05:38:23.763Z,96.93
2016-04-30T05:39:23.735Z,96.93
2016-04-30T05:40:23.721Z,97.22
2016-04-30T05:41:23.677Z,97.03
2016-04-30T05:42:23.507Z,97.22
2016-04-30T05:43:23.464Z,97.41
2016-04-30T05:44:23.451Z,96.93
2016-04-30T05:45:23.579Z,97.12
2016-04-30T05:46:23.551Z,96.74
2016-04-30T05:47:23.365Z,96.74
2016-04-30T05:48:23.493Z,96.74
2016-04-30T05:49:23.840Z,96.45
2016-04-30T05:50:23.436Z,96.84
2016-04-30T05:51:23.423Z,96.93
2016-04-30T05:52:23.394Z,96.74
2016-04-30T05:53:23.366Z,96.55
2016-04-30T05:54:23.337Z,97.03
2016-04-30T05:55:23.308Z,96.74
2016-04-30T05:56:23.280Z,97.03
2016-04-30T05:57:23.252Z,97.03
2016-04-30T05:58:23.223Z,96.45
2016-04-30T05:59:23.211Z,96.65
2016-04-30T06:00:23.026Z,96.65
2016-04-30T06:01:23.152Z,96.36
2016-04-30T06:02:23.124Z,96.36
2016-04-30T06:03:23.097Z,96.26
2016-04-30T06:04:23.067Z,95.6
2016-04-30T06:05:23.055Z,95.41
2016-04-30T06:06:23.026Z,95.65
2016-04-30T06:07:23.013Z,95.79
2016-04-30T06:08:22.969Z,95.6
2016-04-30T06:09:22.955Z,96.03
2016-04-30T06:10:22.927Z,95.75
2016-04-30T06:11:22.899Z,95.36
2016-04-30T06:12:22.714Z,95.84
2016-04-30T06:13:22.841Z,95.56
2016-04-30T06:14:22.813Z,95.17
2016-04-30T06:15:22.784Z,95.36
2016-04-30T06:16:22.771Z,95.08
2016-04-30T06:17:22.743Z,94.89
2016-04-30T06:18:22.714Z,94.13
2016-04-30T06:19:22.529Z,93.75
2016-04-30T06:20:22.657Z,93.84
2016-04-30T06:21:22.629Z,93.65
2016-04-30T06:22:22.615Z,93.46
2016-04-30T06:23:22.581Z,93.37
2016-04-30T06:24:22.569Z,92.7
2016-04-30T06:25:22.539Z,93.13
2016-04-30T06:26:22.511Z,92.61
2016-04-30T06:27:22.483Z,92.99
2016-04-30T06:28:22.455Z,92.41
2016-04-30T06:29:22.425Z,92.61
2016-04-30T06:30:22.397Z,92.56
2016-04-30T06:31:22.385Z,92.36
2016-04-30T06:32:22.356Z,92.18
2016-04-30T06:33:22.327Z,92.18
2016-04-30T06:34:22.143Z,91.8
2016-04-30T06:35:22.270Z,91.99
2016-04-30T06:36:22.257Z,92.08
2016-04-30T06:37:22.072Z,91.89
2016-04-30T06:38:22.199Z,91.99
2016-04-30T06:39:22.187Z,91.7
2016-04-30T06:40:22.143Z,91.32
2016-04-30T06:41:21.974Z,91.32
2016-04-30T06:42:21.945Z,90.94
2016-04-30T06:43:22.073Z,91.13
2016-04-30T06:44:22.044Z,91.03
2016-04-30T06:45:22.015Z,91.32
2016-04-30T06:46:21.987Z,89.99
2016-04-30T06:47:21.958Z,89.8
2016-04-30T06:48:21.961Z,89.61
2016-04-30T06:49:22.214Z,89.23
2016-04-30T06:50:21.732Z,90.28
2016-04-30T06:51:21.860Z,89.61
2016-04-30T06:52:21.847Z,89.7
2016-04-30T06:53:21.661Z,90.28
2016-04-30T06:54:21.790Z,90.37
2016-04-30T06:55:21.762Z,90.28
2016-04-30T06:56:21.733Z,90.75
2016-04-30T06:57:21.563Z,90.75
2016-04-30T06:58:21.535Z,90.37
2016-04-30T06:59:21.506Z,89.7
2016-04-30T07:00:21.634Z,89.37
2016-04-30T07:01:21.622Z,89.27
2016-04-30T07:02:21.436Z,89.08
2016-04-30T07:03:21.564Z,88.79
2016-04-30T07:04:21.567Z,88.99
2016-04-30T07:05:21.522Z,88.51
2016-04-30T07:06:21.493Z,88.32
2016-04-30T07:07:21.466Z,87.65
2016-04-30T07:08:21.452Z,87.65
2016-04-30T07:09:21.424Z,86.9
2016-04-30T07:10:21.411Z,87.46
2016-04-30T07:11:21.367Z,86.9
2016-04-30T07:12:21.338Z,86.61
2016-04-30T07:13:21.169Z,87.08
2016-04-30T07:14:21.140Z,86.55
2016-04-30T07:15:21.268Z,86.51
2016-04-30T07:16:21.240Z,87.03
2016-04-30T07:17:21.227Z,86.84
2016-04-30T07:18:21.198Z,87.03
2016-04-30T07:19:21.170Z,85.99
2016-04-30T07:20:21.141Z,86.46
2016-04-30T07:21:21.128Z,85.6
2016-04-30T07:22:21.100Z,86.08
2016-04-30T07:23:20.915Z,85.8
2016-04-30T07:24:21.042Z,86.65
2016-04-30T07:25:21.030Z,86.94
2016-04-30T07:26:21.001Z,86.75
2016-04-30T07:27:20.972Z,86.55
2016-04-30T07:28:20.959Z,86.18
2016-04-30T07:29:20.775Z,85.6
2016-04-30T07:30:20.903Z,85.36
2016-04-30T07:31:20.889Z,83.93
2016-04-30T07:32:20.861Z,84.5
2016-04-30T07:33:20.832Z,83.36
2016-04-30T07:34:22.335Z,83.55
2016-04-30T07:35:20.807Z,82.98
2016-04-30T07:36:20.763Z,83.07
2016-04-30T07:37:20.577Z,83.07
2016-04-30T07:38:20.705Z,81.93
2016-04-30T07:39:20.693Z,82.5
2016-04-30T07:40:20.663Z,81.07
2016-04-30T07:41:20.651Z,80.6
2016-04-30T07:42:20.622Z,80.5
2016-04-30T07:43:20.593Z,80.69
2016-04-30T07:44:20.581Z,79.97
2016-04-30T07:45:20.396Z,80.07
2016-04-30T07:46:20.523Z,79.3
2016-04-30T07:47:20.495Z,79.59
2016-04-30T07:48:20.482Z,79.88
2016-04-30T07:49:20.876Z,80.64
2016-04-30T07:50:20.425Z,79.59
2016-04-30T07:51:20.412Z,79.59
2016-04-30T07:52:20.383Z,78.73
2016-04-30T07:53:20.370Z,78.92
2016-04-30T07:54:20.342Z,76.67
2016-04-30T07:55:20.157Z,76.77
2016-04-30T07:56:20.300Z,76.57
2016-04-30T07:57:20.272Z,74.77
2016-04-30T07:58:20.244Z,75.62
2016-04-30T07:59:20.214Z,76.29
2016-04-30T08:00:20.202Z,74.04
2016-04-30T08:01:20.173Z,73.94
2016-04-30T08:02:20.004Z,74.04
2016-04-30T08:03:20.132Z,74.71
2016-04-30T08:04:20.510Z,74.04
2016-04-30T08:05:19.933Z,72.23
2016-04-30T08:06:20.077Z,71.18
2016-04-30T08:07:20.048Z,72.32
2016-04-30T08:08:20.021Z,72.26
2016-04-30T08:09:20.008Z,72.42
2016-04-30T08:10:19.979Z,71.88
2016-04-30T08:11:19.949Z,71.98
2016-04-30T08:12:19.937Z,71.69
2016-04-30T08:13:19.924Z,71.31
2016-04-30T08:14:19.895Z,70.07
2016-04-30T08:15:19.882Z,69.02
2016-04-30T08:16:19.854Z,68.63
2016-04-30T08:17:19.670Z,68.63
2016-04-30T08:18:19.797Z,68.54
2016-04-30T08:19:21.190Z,68.38
2016-04-30T08:20:19.756Z,69.05
2016-04-30T08:21:19.742Z,68.29
2016-04-30T08:22:19.714Z,66.76
2016-04-30T08:23:19.545Z,66.76
2016-04-30T08:24:19.673Z,66.95
2016-04-30T08:25:19.504Z,67.62
2016-04-30T08:26:19.803Z,68.8
2016-04-30T08:27:19.617Z,68.96
2016-04-30T08:28:19.590Z,69.27
2016-04-30T08:29:19.577Z,67.94
2016-04-30T08:30:19.407Z,66.6
2016-04-30T08:31:19.520Z,66.79
2016-04-30T08:32:19.506Z,67.33
2016-04-30T08:33:19.494Z,66.56
2016-04-30T08:34:19.746Z,65.61
2016-04-30T08:35:19.452Z,66.31
2016-04-30T08:36:19.423Z,67.36
2016-04-30T08:37:19.411Z,66.85
2016-04-30T08:38:19.382Z,66.28
2016-04-30T08:39:19.368Z,66.5
2016-04-30T08:40:19.340Z,67.05
2016-04-30T08:41:19.327Z,66.76
2016-04-30T08:42:19.299Z,66.56
2016-04-30T08:43:19.285Z,65.42
2016-04-30T08:44:19.257Z,65.42
2016-04-30T08:45:19.260Z,65.96
2016-04-30T08:46:19.060Z,66.53
2016-04-30T08:47:19.203Z,67.58
2016-04-30T08:48:19.174Z,67.49
2016-04-30T08:49:19.146Z,67.11
2016-04-30T08:50:19.134Z,68.06
2016-04-30T08:51:19.104Z,69.4
2016-04-30T08:52:19.092Z,69.87
2016-04-30T08:53:19.063Z,70.07
2016-04-30T08:54:18.894Z,69.4
2016-04-30T08:55:19.021Z,69.46
2016-04-30T08:56:19.008Z,69.65
2016-04-30T08:57:18.980Z,70.03
2016-04-30T08:58:18.795Z,70.03
2016-04-30T08:59:18.938Z,70.03
2016-04-30T09:00:18.910Z,70.89
2016-04-30T09:01:18.881Z,70.79
2016-04-30T09:02:18.869Z,71.56
2016-04-30T09:03:18.839Z,71.94
2016-04-30T09:04:18.827Z,70.98
2016-04-30T09:05:18.799Z,71.94
2016-04-30T09:06:18.614Z,72.42
2016-04-30T09:07:18.757Z,71.94
2016-04-30T09:08:18.728Z,72.13
2016-04-30T09:09:18.716Z,72.32
2016-04-30T09:10:18.687Z,72.03
2016-04-30T09:11:18.673Z,71.66
2016-04-30T09:12:18.504Z,71.75
2016-04-30T09:13:18.616Z,71.66
2016-04-30T09:14:18.604Z,72.23
2016-04-30T09:15:18.575Z,71.75
2016-04-30T09:16:18.562Z,71.46
2016-04-30T09:17:18.534Z,70.79
2016-04-30T09:18:18.505Z,70.03
2016-04-30T09:19:18.523Z,68.79
2016-04-30T09:20:18.479Z,69.74
2016-04-30T09:21:18.451Z,70.61
2016-04-30T09:22:18.423Z,70.03
2016-04-30T09:23:18.409Z,69.21
2016-04-30T09:24:18.381Z,68.63
2016-04-30T09:25:18.212Z,68.44
2016-04-30T09:26:18.340Z,67.49
2016-04-30T09:27:18.325Z,67.05
2016-04-30T09:28:18.297Z,67.81
2016-04-30T09:29:18.269Z,66.76
2016-04-30T09:30:18.256Z,65.9
2016-04-30T09:31:18.227Z,66.53
2016-04-30T09:32:18.058Z,66.76
2016-04-30T09:33:18.202Z,65.61
2016-04-30T09:34:18.173Z,65.8
2016-04-30T09:35:18.160Z,65.14
2016-04-30T09:36:18.117Z,64.85
2016-04-30T09:37:18.103Z,64.28
2016-04-30T09:38:17.918Z,64.85
2016-04-30T09:39:18.061Z,63.32
2016-04-30T09:40:18.033Z,63.23
2016-04-30T09:41:18.021Z,64.09
2016-04-30T09:42:18.007Z,63.32
2016-04-30T09:43:17.979Z,64.09
2016-04-30T09:44:17.949Z,64.78
2016-04-30T09:45:17.938Z,64.02
2016-04-30T09:46:17.752Z,63.73
2016-04-30T09:47:17.895Z,64.5
2016-04-30T09:48:17.868Z,63.45
2016-04-30T09:49:17.713Z,63.93
2016-04-30T09:50:17.825Z,64.78
2016-04-30T09:51:17.813Z,63.26
2016-04-30T09:52:17.784Z,63.16
2016-04-30T09:53:17.756Z,64.12
2016-04-30T09:54:17.743Z,63.07
2016-04-30T09:55:17.729Z,62.97
2016-04-30T09:56:17.701Z,63.26
2016-04-30T09:57:17.531Z,63.16
2016-04-30T09:58:17.659Z,63.16
2016-04-30T09:59:17.647Z,62.9
2016-04-30T10:00:17.618Z,62.9
2016-04-30T10:01:17.605Z,63.57
2016-04-30T10:02:17.577Z,63.57
2016-04-30T10:03:17.564Z,61.47
2016-04-30T10:04:17.676Z,60.99
2016-04-30T10:05:17.506Z,61.31
2016-04-30T10:06:17.494Z,61.09
2016-04-30T10:07:17.480Z,61.09
2016-04-30T10:08:17.452Z,60.35
2016-04-30T10:09:17.439Z,59.3
2016-04-30T10:10:17.410Z,58.92
2016-04-30T10:11:17.397Z,59.49
2016-04-30T10:12:17.369Z,59.3
2016-04-30T10:13:17.356Z,59.01
2016-04-30T10:14:17.172Z,60.35
2016-04-30T10:15:17.315Z,60.45
2016-04-30T10:16:17.302Z,60.93
2016-04-30T10:17:17.117Z,61.02
2016-04-30T10:18:17.260Z,59.97
2016-04-30T10:19:17.794Z,60.93
2016-04-30T10:20:17.218Z,60.55
2016-04-30T10:21:17.050Z,61.12
2016-04-30T10:22:17.177Z,60.83
2016-04-30T10:23:17.149Z,60.93
2016-04-30T10:24:17.137Z,61.02
2016-04-30T10:25:17.123Z,61.12
2016-04-30T10:26:17.094Z,61.22
2016-04-30T10:27:17.082Z,62.46
2016-04-30T10:28:17.053Z,61.51
2016-04-30T10:29:17.040Z,60.93
2016-04-30T10:30:17.012Z,60.93
2016-04-30T10:31:16.998Z,62.65
2016-04-30T10:32:16.986Z,60.45
2016-04-30T10:33:16.957Z,59.4
2016-04-30T10:34:17.084Z,59.88
2016-04-30T10:35:16.916Z,61.6
2016-04-30T10:36:16.902Z,61.15
2016-04-30T10:37:16.875Z,62.17
2016-04-30T10:38:16.845Z,60.16
2016-04-30T10:39:16.677Z,61.88
2016-04-30T10:40:16.820Z,61.79
2016-04-30T10:41:16.791Z,61.6
2016-04-30T10:42:16.778Z,62.17
2016-04-30T10:43:16.766Z,62.46
2016-04-30T10:44:16.736Z,62.65
2016-04-30T10:45:16.724Z,62.55
2016-04-30T10:46:16.696Z,63.13
2016-04-30T10:47:16.682Z,61.88
2016-04-30T10:48:16.654Z,62.46
2016-04-30T10:49:16.719Z,62.08
2016-04-30T10:50:16.456Z,61.88
2016-04-30T10:51:16.599Z,61.22
2016-04-30T10:52:16.414Z,61.85
2016-04-30T10:53:16.558Z,60.9
2016-04-30T10:54:16.546Z,61.31
2016-04-30T10:55:16.360Z,61.12
2016-04-30T10:56:16.488Z,61.88
2016-04-30T10:57:16.475Z,61.6
2016-04-30T10:58:16.462Z,61.98
2016-04-30T10:59:16.277Z,60.64
2016-04-30T11:00:16.264Z,60.93
2016-04-30T11:01:16.392Z,61.51
2016-04-30T11:02:16.378Z,61.98
2016-04-30T11:03:16.351Z,63.03
2016-04-30T11:04:16.353Z,63.86
2016-04-30T11:05:16.324Z,63.42
2016-04-30T11:06:16.296Z,63.23
2016-04-30T11:07:16.283Z,63.29
2016-04-30T11:08:16.269Z,64.05
2016-04-30T11:09:16.242Z,63.96
2016-04-30T11:10:16.214Z,64.05
2016-04-30T11:11:16.044Z,62.71
2016-04-30T11:12:16.186Z,64.05
2016-04-30T11:13:16.158Z,64.34
2016-04-30T11:14:15.980Z,65.2
2016-04-30T11:15:16.104Z,65.87
2016-04-30T11:16:16.095Z,65.26
2016-04-30T11:17:16.062Z,65.77
2016-04-30T11:18:16.049Z,65.74
2016-04-30T11:19:16.036Z,64.78
2016-04-30T11:20:16.024Z,65.2
2016-04-30T11:21:15.979Z,65.26
2016-04-30T11:22:15.826Z,66.22
2016-04-30T11:23:15.937Z,65.84
2016-04-30T11:24:15.768Z,64.88
2016-04-30T11:25:15.896Z,65.93
2016-04-30T11:26:15.883Z,65.07
2016-04-30T11:27:15.854Z,66.03
2016-04-30T11:28:15.842Z,65.55
2016-04-30T11:29:15.812Z,66.03
2016-04-30T11:30:15.800Z,66.6
2016-04-30T11:31:15.772Z,66.22
2016-04-30T11:32:15.758Z,66.5
2016-04-30T11:33:15.730Z,66.41
2016-04-30T11:34:15.717Z,65.45
2016-04-30T11:35:15.689Z,65.36
2016-04-30T11:36:15.676Z,65.55
2016-04-30T11:37:15.491Z,65.74
2016-04-30T11:38:15.633Z,65.64
2016-04-30T11:39:15.605Z,65.64
2016-04-30T11:40:15.592Z,65.93
2016-04-30T11:41:15.407Z,65.48
2016-04-30T11:42:15.552Z,65.64
2016-04-30T11:43:15.522Z,65.97
2016-04-30T11:44:15.494Z,66.73
2016-04-30T11:45:15.481Z,64.82
2016-04-30T11:46:15.453Z,62.9
2016-04-30T11:47:15.440Z,63.29
2016-04-30T11:48:15.426Z,63.48
2016-04-30T11:49:17.523Z,63.32
2016-04-30T11:50:15.369Z,63.23
2016-04-30T11:51:15.357Z,62.46
2016-04-30T11:52:15.343Z,62.55
2016-04-30T11:53:15.315Z,63.51
2016-04-30T11:54:15.286Z,63.51
2016-04-30T11:55:15.273Z,63.23
2016-04-30T11:56:15.260Z,61.41
2016-04-30T11:57:15.232Z,61.25
2016-04-30T11:58:15.219Z,60.96
2016-04-30T11:59:15.206Z,60.38
2016-04-30T12:00:15.178Z,60.1
2016-04-30T12:01:15.149Z,58.86
2016-04-30T12:02:15.152Z,58.4
2016-04-30T12:03:15.122Z,57.35
2016-04-30T12:04:14.953Z,58.22
2016-04-30T12:05:15.082Z,56.49
2016-04-30T12:06:14.897Z,56.1
2016-04-30T12:07:15.056Z,57.06
2016-04-30T12:08:15.028Z,57.16
2016-04-30T12:09:15.014Z,56.77
2016-04-30T12:10:14.985Z,56.68
2016-04-30T12:11:14.957Z,56.68
2016-04-30T12:12:14.944Z,57.16
2016-04-30T12:13:14.931Z,56.01
2016-04-30T12:14:14.902Z,55.34
2016-04-30T12:15:14.890Z,55.53
2016-04-30T12:16:14.861Z,55.82
2016-04-30T12:17:14.848Z,56.49
2016-04-30T12:18:14.819Z,54.96
2016-04-30T12:19:14.979Z,55.05
2016-04-30T12:20:14.794Z,54.79
2016-04-30T12:21:14.609Z,54.89
2016-04-30T12:22:14.752Z,54.41
2016-04-30T12:23:14.739Z,53.83
2016-04-30T12:24:14.710Z,53.64
2016-04-30T12:25:14.698Z,53.64
2016-04-30T12:26:14.670Z,53.26
2016-04-30T12:27:14.501Z,52.11
2016-04-30T12:28:14.643Z,51.34
2016-04-30T12:29:14.615Z,52.69
2016-04-30T12:30:14.602Z,51.34
2016-04-30T12:31:14.573Z,52.2
2016-04-30T12:32:14.560Z,52.3
2016-04-30T12:33:14.531Z,52.78
2016-04-30T12:34:14.534Z,52.4
2016-04-30T12:35:14.506Z,52.5
2016-04-30T12:36:14.477Z,52.87
2016-04-30T12:37:14.464Z,53.26
2016-04-30T12:38:14.463Z,52.4
2016-04-30T12:39:14.474Z,52.66
2016-04-30T12:40:14.487Z,52.37
2016-04-30T12:41:14.514Z,53.81
2016-04-30T12:42:14.542Z,54.03
2016-04-30T12:43:14.562Z,54.41
2016-04-30T12:44:14.565Z,54.6
2016-04-30T12:45:14.551Z,52.4
2016-04-30T12:46:14.537Z,51.82
2016-04-30T12:47:14.539Z,51.63
2016-04-30T12:48:14.382Z,50.77
2016-04-30T12:49:14.530Z,50.2
2016-04-30T12:50:14.507Z,50.58
2016-04-30T12:51:14.499Z,50.79
2016-04-30T12:52:14.476Z,51.18
2016-04-30T12:53:14.467Z,50.99
2016-04-30T12:54:14.441Z,50.7
2016-04-30T12:55:14.430Z,51.75